Time;durP1;ratioP1;P1;durP2;ratioP2;P2;SDS_P1;SDS_P2;PMS_P1;PMS_P2;Temp;Humidity;BMP_temperature;BMP_pressure;BME280_temperature;BME280_humidity;BME280_pressure;Samples;Min_cycle;Max_cycle;Signal;HPM_P1;HPM_P2
2023/10/08 00:02:14;;;;;;;18.15;6.18;;;;;;;;;;4827697;29;20053;-79
2023/10/08 00:05:00;;;;;;;16.00;6.18;;;;;;;;;;4825777;29;20050;-80
2023/10/08 00:07:44;;;;;;;15.48;5.32;;;;;;;;;;4825226;29;20061;-78
2023/10/08 00:10:34;;;;;;;11.77;6.18;;;;;;;;;;4822846;29;20053;-80
2023/10/08 00:13:20;;;;;;;18.88;7.70;;;;;;;;;;4822910;29;20057;-79
2023/10/08 00:16:10;;;;;;;18.30;7.40;;;;;;;;;;4823307;29;20050;-79
2023/10/08 00:19:00;;;;;;;18.05;6.90;;;;;;;;;;4823111;29;20041;-80
2023/10/08 00:21:45;;;;;;;16.02;7.20;;;;;;;;;;4822671;29;20054;-79
2023/10/08 00:24:33;;;;;;;14.95;6.50;;;;;;;;;;4823222;29;20057;-79
2023/10/08 00:27:18;;;;;;;20.38;6.57;;;;;;;;;;4823510;29;20463;-79
2023/10/08 00:30:12;;;;;;;13.57;6.82;;;;;;;;;;4818620;29;20053;-80
2023/10/08 00:32:57;;;;;;;15.35;7.90;;;;;;;;;;4814663;29;20054;-80
2023/10/08 00:35:42;;;;;;;17.75;7.75;;;;;;;;;;4823174;29;20049;-78
2023/10/08 00:38:32;;;;;;;16.20;7.25;;;;;;;;;;4817614;29;20046;-80
2023/10/08 00:41:21;;;;;;;17.05;7.63;;;;;;;;;;4824076;29;20393;-79
2023/10/08 00:44:22;;;;;;;15.07;7.80;;;;;;;;;;4814450;29;20046;-81
2023/10/08 00:47:11;;;;;;;13.43;6.78;;;;;;;;;;4828039;29;20406;-78
2023/10/08 00:50:08;;;;;;;11.90;6.03;;;;;;;;;;4827793;29;20053;-78
2023/10/08 00:53:00;;;;;;;12.57;6.10;;;;;;;;;;4814671;29;20045;-81
2023/10/08 00:55:53;;;;;;;18.33;8.23;;;;;;;;;;4824983;29;20049;-80
2023/10/08 00:58:40;;;;;;;16.73;8.40;;;;;;;;;;4823489;29;20455;-77
2023/10/08 01:01:25;;;;;;;14.25;6.65;;;;;;;;;;4822215;29;20475;-82
2023/10/08 01:04:15;;;;;;;17.70;7.82;;;;;;;;;;4821994;29;20053;-77
2023/10/08 01:07:15;;;;;;;16.92;7.25;;;;;;;;;;4822785;29;20398;-77
2023/10/08 01:10:05;;;;;;;16.08;7.30;;;;;;;;;;4814447;29;20050;-78
2023/10/08 01:15:41;;;;;;;22.42;6.82;;;;;;;;;;4823460;29;20064;-78
2023/10/08 01:18:32;;;;;;;12.95;6.32;;;;;;;;;;4822253;29;20405;-80
2023/10/08 01:21:33;;;;;;;19.20;6.97;;;;;;;;;;4823043;29;20058;-78
2023/10/08 01:24:19;;;;;;;15.48;7.25;;;;;;;;;;4812591;29;20058;-79
2023/10/08 01:27:09;;;;;;;16.80;6.78;;;;;;;;;;4814744;29;20061;-79
2023/10/08 01:29:54;;;;;;;11.02;5.97;;;;;;;;;;4827632;29;20046;-79
2023/10/08 01:32:40;;;;;;;15.13;6.68;;;;;;;;;;4822708;29;20050;-79
2023/10/08 01:35:31;;;;;;;16.75;6.22;;;;;;;;;;4822633;29;20049;-78
2023/10/08 01:38:22;;;;;;;12.38;5.90;;;;;;;;;;4822719;29;20062;-78
2023/10/08 01:41:25;;;;;;;13.57;6.53;;;;;;;;;;4822487;29;20054;-79
2023/10/08 01:44:10;;;;;;;15.15;6.80;;;;;;;;;;4821860;29;20054;-79
2023/10/08 01:46:58;;;;;;;17.05;6.57;;;;;;;;;;4817490;29;20058;-78
2023/10/08 01:49:45;;;;;;;16.00;7.57;;;;;;;;;;4825904;29;20054;-80
2023/10/08 01:52:31;;;;;;;14.43;6.95;;;;;;;;;;4823045;29;20050;-78
2023/10/08 01:55:18;;;;;;;21.90;11.65;;;;;;;;;;4823595;29;20462;-77
2023/10/08 01:58:05;;;;;;;23.85;9.23;;;;;;;;;;4831313;29;20462;-79
2023/10/08 02:00:52;;;;;;;15.68;8.35;;;;;;;;;;4818180;29;20382;-81
2023/10/08 02:03:37;;;;;;;18.25;7.72;;;;;;;;;;4826822;29;20050;-78
2023/10/08 02:06:23;;;;;;;9.80;5.32;;;;;;;;;;4825508;29;20050;-79
2023/10/08 02:09:08;;;;;;;12.15;5.32;;;;;;;;;;4817712;29;20406;-78
2023/10/08 02:11:53;;;;;;;13.95;4.70;;;;;;;;;;4826211;29;20050;-78
2023/10/08 02:14:40;;;;;;;8.75;3.67;;;;;;;;;;4824946;29;20046;-78
2023/10/08 02:17:28;;;;;;;11.18;3.88;;;;;;;;;;4826402;29;20462;-80
2023/10/08 02:20:15;;;;;;;7.18;3.45;;;;;;;;;;4817404;29;20050;-78
2023/10/08 02:23:00;;;;;;;9.10;3.85;;;;;;;;;;4817746;29;20467;-80
2023/10/08 02:25:47;;;;;;;8.82;4.20;;;;;;;;;;4826173;29;20374;-79
2023/10/08 02:28:33;;;;;;;8.35;3.85;;;;;;;;;;4824886;29;20053;-80
2023/10/08 02:31:18;;;;;;;11.93;6.03;;;;;;;;;;4831296;29;20058;-79
2023/10/08 02:34:07;;;;;;;10.55;6.18;;;;;;;;;;4824500;29;20050;-79
2023/10/08 02:36:52;;;;;;;12.70;7.07;;;;;;;;;;4825166;29;20482;-81
2023/10/08 02:39:40;;;;;;;10.00;5.22;;;;;;;;;;4817525;29;20061;-78
2023/10/08 02:42:25;;;;;;;9.18;4.50;;;;;;;;;;4825104;29;20058;-79
2023/10/08 02:45:13;;;;;;;9.20;4.07;;;;;;;;;;4825163;29;20447;-80
2023/10/08 02:47:59;;;;;;;7.28;3.90;;;;;;;;;;4825060;29;20057;-79
2023/10/08 02:50:47;;;;;;;9.32;4.22;;;;;;;;;;4824389;29;20402;-77
2023/10/08 02:53:34;;;;;;;10.25;4.45;;;;;;;;;;4825501;29;20049;-78
2023/10/08 02:56:21;;;;;;;10.30;4.68;;;;;;;;;;4816063;29;20414;-80
2023/10/08 02:59:09;;;;;;;9.63;3.88;;;;;;;;;;4817305;29;20046;-78
2023/10/08 03:01:55;;;;;;;6.60;3.72;;;;;;;;;;4829050;29;20046;-80
2023/10/08 03:04:45;;;;;;;8.55;3.55;;;;;;;;;;4815967;29;20053;-79
2023/10/08 03:07:35;;;;;;;7.88;3.67;;;;;;;;;;4823621;29;20414;-81
2023/10/08 03:10:22;;;;;;;7.25;3.55;;;;;;;;;;4816291;29;20054;-81
2023/10/08 03:13:10;;;;;;;10.05;3.55;;;;;;;;;;4824984;29;20474;-78
2023/10/08 03:18:45;;;;;;;7.35;3.55;;;;;;;;;;4824595;29;20362;-81
2023/10/08 03:24:37;;;;;;;8.73;3.70;;;;;;;;;;4827171;29;20398;-79
2023/10/08 03:27:26;;;;;;;6.88;3.38;;;;;;;;;;4825284;29;20402;-82
2023/10/08 03:30:14;;;;;;;8.57;3.55;;;;;;;;;;4816488;29;20054;-78
2023/10/08 03:33:04;;;;;;;7.40;3.83;;;;;;;;;;4829866;29;20050;-81
2023/10/08 03:35:55;;;;;;;8.90;3.92;;;;;;;;;;4825124;29;20054;-78
2023/10/08 03:38:50;;;;;;;11.00;3.60;;;;;;;;;;4816362;29;20054;-81
2023/10/08 03:41:39;;;;;;;7.90;3.58;;;;;;;;;;4823932;29;20053;-80
2023/10/08 03:44:25;;;;;;;16.60;8.25;;;;;;;;;;4826811;29;20050;-79
2023/10/08 03:47:11;;;;;;;33.17;18.17;;;;;;;;;;4825659;29;20046;-80
2023/10/08 03:49:57;;;;;;;21.63;11.90;;;;;;;;;;4824671;29;20050;-77
2023/10/08 03:52:44;;;;;;;15.68;8.70;;;;;;;;;;4824885;29;20398;-80
2023/10/08 03:55:34;;;;;;;13.75;7.60;;;;;;;;;;4810824;29;20462;-79
2023/10/08 03:58:27;;;;;;;13.35;6.00;;;;;;;;;;4823678;29;20045;-79
2023/10/08 04:01:18;;;;;;;10.10;5.50;;;;;;;;;;4823242;29;20046;-79
2023/10/08 04:04:05;;;;;;;10.90;4.65;;;;;;;;;;4824020;29;20042;-79
2023/10/08 04:06:54;;;;;;;7.53;3.97;;;;;;;;;;4823677;29;20042;-80
2023/10/08 04:09:42;;;;;;;8.32;3.90;;;;;;;;;;4823962;29;20054;-82
2023/10/08 04:12:27;;;;;;;9.20;4.13;;;;;;;;;;4823555;29;20054;-79
2023/10/08 04:15:16;;;;;;;9.60;4.32;;;;;;;;;;4822383;29;20058;-80
2023/10/08 04:18:02;;;;;;;11.27;3.55;;;;;;;;;;4823475;29;20370;-78
2023/10/08 04:21:00;;;;;;;7.28;3.70;;;;;;;;;;4822791;29;20053;-78
2023/10/08 04:23:46;;;;;;;7.60;3.55;;;;;;;;;;4823035;29;20049;-79
2023/10/08 04:26:32;;;;;;;9.82;3.58;;;;;;;;;;4822935;29;20478;-79
2023/10/08 04:29:22;;;;;;;6.45;3.50;;;;;;;;;;4823357;29;20470;-80
2023/10/08 04:32:12;;;;;;;9.52;4.03;;;;;;;;;;4828802;29;20053;-79
2023/10/08 04:34:57;;;;;;;6.78;3.80;;;;;;;;;;4815379;29;20053;-80
2023/10/08 04:37:43;;;;;;;7.55;3.88;;;;;;;;;;4823045;29;20405;-78
2023/10/08 04:40:33;;;;;;;7.40;3.92;;;;;;;;;;4822824;29;20394;-79
2023/10/08 04:43:25;;;;;;;8.60;4.32;;;;;;;;;;4815369;29;20050;-79
2023/10/08 04:46:19;;;;;;;5.80;3.40;;;;;;;;;;4823295;29;20049;-82
2023/10/08 04:49:07;;;;;;;12.32;4.20;;;;;;;;;;4824201;29;20402;-79
2023/10/08 04:52:18;;;;;;;7.82;3.85;;;;;;;;;;4823289;29;20455;-80
2023/10/08 04:55:15;;;;;;;10.25;4.05;;;;;;;;;;4821594;29;20054;-82
2023/10/08 04:58:04;;;;;;;7.50;4.07;;;;;;;;;;4822652;29;20046;-81
2023/10/08 05:00:59;;;;;;;10.10;5.50;;;;;;;;;;4822668;29;20410;-81
2023/10/08 05:12:38;;;;;;;23.95;12.80;;;;;;;;;;4823386;29;20050;-81
2023/10/08 05:15:32;;;;;;;30.48;15.02;;;;;;;;;;4821916;29;20062;-80
2023/10/08 05:21:25;;;;;;;12.77;6.07;;;;;;;;;;4823418;29;20386;-79
2023/10/08 05:24:12;;;;;;;13.80;6.18;;;;;;;;;;4822187;29;20054;-80
2023/10/08 05:27:26;;;;;;;18.08;12.00;;;;;;;;;;4823463;29;20058;-81
2023/10/08 05:30:15;;;;;;;15.50;6.68;;;;;;;;;;4814910;29;20054;-78
2023/10/08 05:35:49;;;;;;;17.08;8.63;;;;;;;;;;4825506;29;20402;-77
2023/10/08 05:41:28;;;;;;;14.13;7.18;;;;;;;;;;4830074;29;20474;-80
2023/10/08 05:53:15;;;;;;;36.63;9.07;;;;;;;;;;4827127;29;20053;-78
2023/10/08 05:56:16;;;;;;;15.25;7.15;;;;;;;;;;4825586;29;20053;-78
2023/10/08 05:59:17;;;;;;;19.42;7.57;;;;;;;;;;4826210;29;20050;-79
2023/10/08 06:02:27;;;;;;;20.27;9.57;;;;;;;;;;4825683;29;20054;-81
2023/10/08 06:08:10;;;;;;;19.27;7.47;;;;;;;;;;4825638;29;20046;-81
2023/10/08 06:11:00;;;;;;;12.00;6.00;;;;;;;;;;4825137;29;20050;-80
2023/10/08 06:13:50;;;;;;;19.60;7.85;;;;;;;;;;4825765;29;20053;-77
2023/10/08 06:16:41;;;;;;;20.77;8.48;;;;;;;;;;4817956;29;20394;-80
2023/10/08 06:19:27;;;;;;;13.82;7.05;;;;;;;;;;4824510;29;20058;-81
2023/10/08 06:22:12;;;;;;;13.05;5.28;;;;;;;;;;4830803;29;20399;-82
2023/10/08 06:25:16;;;;;;;19.48;6.45;;;;;;;;;;4824097;29;20061;-80
2023/10/08 06:28:02;;;;;;;16.52;5.97;;;;;;;;;;4825404;29;20058;-79
2023/10/08 06:30:53;;;;;;;12.82;5.85;;;;;;;;;;4825421;29;20038;-79
2023/10/08 06:33:40;;;;;;;8.88;5.70;;;;;;;;;;4825199;29;20062;-81
2023/10/08 06:36:27;;;;;;;11.77;5.05;;;;;;;;;;4824857;29;20471;-78
2023/10/08 06:39:18;;;;;;;11.57;5.20;;;;;;;;;;4824053;29;20054;-81
2023/10/08 06:42:04;;;;;;;14.98;4.88;;;;;;;;;;4824828;29;20054;-79
2023/10/08 06:44:57;;;;;;;10.77;5.28;;;;;;;;;;4817875;29;20065;-80
2023/10/08 06:47:45;;;;;;;13.05;5.18;;;;;;;;;;4849320;29;20053;-80
2023/10/08 06:50:30;;;;;;;8.98;5.13;;;;;;;;;;4849393;29;20053;-80
2023/10/08 06:53:21;;;;;;;18.00;5.80;;;;;;;;;;4842835;29;20046;-81
2023/10/08 06:56:12;;;;;;;9.32;4.32;;;;;;;;;;4827163;29;20053;-81
2023/10/08 06:58:59;;;;;;;8.95;4.47;;;;;;;;;;4828734;29;20050;-83
2023/10/08 07:01:50;;;;;;;9.20;3.92;;;;;;;;;;4823346;29;20049;-80
2023/10/08 07:04:36;;;;;;;6.45;3.60;;;;;;;;;;4822003;29;20432;-80
2023/10/08 07:07:22;;;;;;;13.75;4.60;;;;;;;;;;4828489;29;20053;-81
2023/10/08 07:10:10;;;;;;;8.07;3.65;;;;;;;;;;4829290;29;20409;-82
2023/10/08 07:12:56;;;;;;;8.57;4.30;;;;;;;;;;4821887;29;20041;-83
2023/10/08 07:15:44;;;;;;;9.57;4.20;;;;;;;;;;4822894;29;20045;-83
2023/10/08 07:18:33;;;;;;;8.30;4.07;;;;;;;;;;4807862;29;20463;-81
2023/10/08 07:21:28;;;;;;;9.98;4.45;;;;;;;;;;4792489;29;20050;-81
2023/10/08 07:24:19;;;;;;;9.80;4.82;;;;;;;;;;4806565;29;20431;-78
2023/10/08 07:27:08;;;;;;;7.70;4.03;;;;;;;;;;4805795;29;20054;-80
2023/10/08 07:29:55;;;;;;;11.23;4.20;;;;;;;;;;4792850;29;20046;-82
2023/10/08 07:32:41;;;;;;;14.95;6.63;;;;;;;;;;4806422;29;20387;-81
2023/10/08 07:35:39;;;;;;;12.07;7.20;;;;;;;;;;4798149;29;20046;-79
2023/10/08 07:38:28;;;;;;;10.75;6.55;;;;;;;;;;4801188;29;20059;-80
2023/10/08 07:41:14;;;;;;;11.13;6.35;;;;;;;;;;4814236;29;20456;-82
2023/10/08 07:44:00;;;;;;;15.30;6.93;;;;;;;;;;4807719;29;20452;-80
2023/10/08 07:46:46;;;;;;;12.95;5.55;;;;;;;;;;4793253;29;20054;-81
2023/10/08 07:49:32;;;;;;;12.32;5.90;;;;;;;;;;4836353;29;20046;-81
2023/10/08 07:52:17;;;;;;;10.90;5.32;;;;;;;;;;4840515;29;20370;-80
2023/10/08 07:55:04;;;;;;;15.48;7.55;;;;;;;;;;4834342;29;20054;-82
2023/10/08 07:57:50;;;;;;;15.55;8.60;;;;;;;;;;4833713;29;20049;-80
2023/10/08 08:00:38;;;;;;;14.20;7.60;;;;;;;;;;4833942;29;20041;-84
2023/10/08 08:03:24;;;;;;;35.05;16.48;;;;;;;;;;4841946;29;20053;-81
2023/10/08 08:06:10;;;;;;;24.00;11.73;;;;;;;;;;4828293;29;20470;-82
2023/10/08 08:08:55;;;;;;;17.95;7.55;;;;;;;;;;4841925;29;20405;-81
2023/10/08 08:11:41;;;;;;;12.10;4.65;;;;;;;;;;4841171;29;20041;-84
2023/10/08 08:14:28;;;;;;;12.95;5.45;;;;;;;;;;4840861;29;20053;-80
2023/10/08 08:17:15;;;;;;;13.60;5.43;;;;;;;;;;4840617;29;20401;-83
2023/10/08 08:20:17;;;;;;;9.95;5.25;;;;;;;;;;4841045;29;20041;-81
2023/10/08 08:23:06;;;;;;;9.57;4.65;;;;;;;;;;4841229;29;20045;-82
2023/10/08 08:26:40;;;;;;;10.98;5.00;;;;;;;;;;4827652;29;20057;-82
2023/10/08 08:29:02;;;;;;;10.48;4.00;;;;;;;;;;4827917;29;20405;-81
2023/10/08 08:31:47;;;;;;;10.43;4.47;;;;;;;;;;4827371;29;20053;-82
2023/10/08 08:34:32;;;;;;;8.90;4.38;;;;;;;;;;4834201;29;20061;-84
2023/10/08 08:37:17;;;;;;;9.18;4.43;;;;;;;;;;4827375;29;20152;-79
2023/10/08 08:40:17;;;;;;;8.48;4.70;;;;;;;;;;4827936;29;20466;-81
2023/10/08 08:43:05;;;;;;;13.25;4.93;;;;;;;;;;4842681;29;20049;-84
2023/10/08 08:45:50;;;;;;;8.10;4.38;;;;;;;;;;4827358;29;20405;-80
2023/10/08 08:48:38;;;;;;;9.02;4.95;;;;;;;;;;4842185;29;20458;-81
2023/10/08 08:51:23;;;;;;;14.45;7.78;;;;;;;;;;4827615;29;20401;-81
2023/10/08 08:54:09;;;;;;;15.18;7.13;;;;;;;;;;4821357;29;20045;-82
2023/10/08 08:56:55;;;;;;;11.70;5.72;;;;;;;;;;4841470;29;20469;-82
2023/10/08 08:59:53;;;;;;;10.52;5.13;;;;;;;;;;4826768;29;20042;-81
2023/10/08 09:02:40;;;;;;;14.07;6.38;;;;;;;;;;4841465;29;20049;-80
2023/10/08 09:05:26;;;;;;;21.20;7.88;;;;;;;;;;4833820;29;20473;-80
2023/10/08 09:08:12;;;;;;;15.27;6.38;;;;;;;;;;4844843;29;20382;-81
2023/10/08 09:11:00;;;;;;;14.43;6.05;;;;;;;;;;4836452;29;20061;-81
2023/10/08 09:13:46;;;;;;;19.42;7.68;;;;;;;;;;4836208;29;20473;-81
2023/10/08 09:16:34;;;;;;;20.05;8.70;;;;;;;;;;4837027;29;20050;-82
2023/10/08 09:19:24;;;;;;;16.30;8.35;;;;;;;;;;4836803;29;20045;-81
2023/10/08 09:22:11;;;;;;;18.20;9.27;;;;;;;;;;4823034;29;20050;-80
2023/10/08 09:24:59;;;;;;;13.60;6.20;;;;;;;;;;4819949;29;20413;-82
2023/10/08 09:27:52;;;;;;;12.15;5.25;;;;;;;;;;4836582;29;20401;-80
2023/10/08 09:30:40;;;;;;;15.35;6.20;;;;;;;;;;4824037;29;20053;-83
2023/10/08 09:33:25;;;;;;;14.35;6.10;;;;;;;;;;4831037;29;20422;-81
2023/10/08 09:36:18;;;;;;;11.18;5.80;;;;;;;;;;4840982;29;20049;-81
2023/10/08 09:39:06;;;;;;;23.20;8.27;;;;;;;;;;4848274;29;20045;-81
2023/10/08 09:41:54;;;;;;;19.90;8.02;;;;;;;;;;4845945;29;20430;-83
2023/10/08 09:44:39;;;;;;;15.55;8.52;;;;;;;;;;4846588;29;20050;-82
2023/10/08 09:47:27;;;;;;;11.35;5.75;;;;;;;;;;4845251;29;20045;-80
2023/10/08 09:50:15;;;;;;;13.40;5.85;;;;;;;;;;4831329;29;20049;-83
2023/10/08 09:53:16;;;;;;;11.55;5.53;;;;;;;;;;4830686;29;20401;-79
2023/10/08 09:56:06;;;;;;;11.48;5.50;;;;;;;;;;4830611;29;20397;-81
2023/10/08 09:58:53;;;;;;;12.48;5.55;;;;;;;;;;4824270;29;20062;-84
2023/10/08 10:01:41;;;;;;;10.35;5.13;;;;;;;;;;4844736;29;20454;-80
2023/10/08 10:04:31;;;;;;;13.27;5.35;;;;;;;;;;4831094;29;20090;-83
2023/10/08 10:07:17;;;;;;;10.90;4.95;;;;;;;;;;4845096;29;20042;-85
2023/10/08 10:10:26;;;;;;;11.23;5.15;;;;;;;;;;4844805;29;20061;-81
2023/10/08 10:13:11;;;;;;;12.13;5.35;;;;;;;;;;4823355;29;20053;-83
2023/10/08 10:15:58;;;;;;;12.43;5.22;;;;;;;;;;4843775;29;20463;-81
2023/10/08 10:18:49;;;;;;;14.25;6.43;;;;;;;;;;4835441;29;20422;-81
2023/10/08 10:21:35;;;;;;;13.00;5.43;;;;;;;;;;4850599;29;20061;-83
2023/10/08 10:24:35;;;;;;;8.75;5.13;;;;;;;;;;4835373;29;20406;-80
2023/10/08 10:27:21;;;;;;;9.85;4.53;;;;;;;;;;4810498;29;20049;-82
2023/10/08 10:30:10;;;;;;;11.48;5.18;;;;;;;;;;4843537;29;20458;-79
2023/10/08 10:32:57;;;;;;;11.68;5.75;;;;;;;;;;4823283;29;20041;-80
2023/10/08 10:35:50;;;;;;;10.60;5.30;;;;;;;;;;4844160;29;20443;-82
2023/10/08 10:38:37;;;;;;;13.20;6.18;;;;;;;;;;4843065;29;20486;-82
2023/10/08 10:41:23;;;;;;;14.05;5.28;;;;;;;;;;4823530;29;20485;-82
2023/10/08 10:44:08;;;;;;;11.73;4.53;;;;;;;;;;4843678;29;20409;-83
2023/10/08 10:52:45;;;;;;;9.43;4.70;;;;;;;;;;4835762;29;20450;-80
2023/10/08 10:55:33;;;;;;;9.25;4.60;;;;;;;;;;4828995;29;20054;-81
2023/10/08 10:58:24;;;;;;;12.27;5.82;;;;;;;;;;4842048;29;20406;-81
2023/10/08 11:01:44;;;;;;;8.93;4.82;;;;;;;;;;4835198;29;20053;-80
2023/10/08 11:04:19;;;;;;;14.85;6.10;;;;;;;;;;4835571;29;20057;-82
2023/10/08 11:07:06;;;;;;;10.35;5.65;;;;;;;;;;4849074;29;20500;-79
2023/10/08 11:09:52;;;;;;;12.40;6.32;;;;;;;;;;4828846;29;20041;-82
2023/10/08 11:12:47;;;;;;;14.75;5.93;;;;;;;;;;4848598;29;20053;-84
2023/10/08 11:15:40;;;;;;;;;;;;;;;;;;4843003;29;20466;-82
2023/10/08 11:18:28;;;;;;;12.85;5.82;;;;;;;;;;4827830;29;20332;-82
2023/10/08 11:21:15;;;;;;;11.10;5.22;;;;;;;;;;4842324;29;20398;-80
2023/10/08 11:24:08;;;;;;;11.95;5.13;;;;;;;;;;4842718;29;20061;-80
2023/10/08 11:27:06;;;;;;;11.38;5.93;;;;;;;;;;4840106;29;20058;-83
2023/10/08 11:29:57;;;;;;;18.05;6.10;;;;;;;;;;4829048;29;20038;-83
2023/10/08 11:32:48;;;;;;;13.45;6.80;;;;;;;;;;4827602;29;20050;-81
2023/10/08 11:35:34;;;;;;;13.63;7.38;;;;;;;;;;4822598;29;20459;-80
2023/10/08 11:38:22;;;;;;;14.02;7.68;;;;;;;;;;4813681;29;20433;-83
2023/10/08 11:41:21;;;;;;;14.63;7.13;;;;;;;;;;4823212;29;20471;-79
2023/10/08 11:44:13;;;;;;;16.50;7.95;;;;;;;;;;4826765;29;20058;-84
2023/10/08 11:47:11;;;;;;;17.05;8.75;;;;;;;;;;4824933;29;20054;-80
2023/10/08 11:50:10;;;;;;;16.92;7.82;;;;;;;;;;4823068;29;20049;-81
2023/10/08 11:52:56;;;;;;;20.60;8.98;;;;;;;;;;4810081;29;20463;-81
2023/10/08 11:55:42;;;;;;;17.17;7.65;;;;;;;;;;4830783;29;20050;-82
2023/10/08 11:58:39;;;;;;;15.57;7.60;;;;;;;;;;4816824;29;20042;-83
2023/10/08 12:01:27;;;;;;;14.98;7.43;;;;;;;;;;4829736;29;20034;-82
2023/10/08 12:04:15;;;;;;;13.95;7.40;;;;;;;;;;4814599;29;20046;-79
2023/10/08 12:07:07;;;;;;;15.55;8.07;;;;;;;;;;4810145;29;20466;-80
2023/10/08 12:09:54;;;;;;;15.40;6.60;;;;;;;;;;4828403;29;20050;-82
2023/10/08 12:12:40;;;;;;;14.07;6.30;;;;;;;;;;4828180;29;20050;-82
2023/10/08 12:15:34;;;;;;;11.40;5.82;;;;;;;;;;4826806;29;20409;-83
2023/10/08 12:18:25;;;;;;;14.15;6.28;;;;;;;;;;4820410;29;20045;-81
2023/10/08 12:21:15;;;;;;;13.13;6.45;;;;;;;;;;4822930;29;20045;-83
2023/10/08 12:24:05;;;;;;;14.57;6.57;;;;;;;;;;4823001;29;20054;-84
2023/10/08 12:26:50;;;;;;;10.48;6.07;;;;;;;;;;4828769;29;20050;-81
2023/10/08 12:29:35;;;;;;;14.30;6.43;;;;;;;;;;4815172;29;20402;-81
2023/10/08 12:32:26;;;;;;;13.13;6.50;;;;;;;;;;4822749;29;20049;-81
2023/10/08 12:35:14;;;;;;;12.60;6.50;;;;;;;;;;4815558;29;20038;-80
2023/10/08 12:38:00;;;;;;;10.73;6.22;;;;;;;;;;4822581;29;20046;-83
2023/10/08 12:40:52;;;;;;;13.90;5.53;;;;;;;;;;4814793;29;20050;-83
2023/10/08 12:43:52;;;;;;;11.68;5.40;;;;;;;;;;4822860;29;20046;-82
2023/10/08 12:46:38;;;;;;;17.40;6.50;;;;;;;;;;4821086;29;20402;-82
2023/10/08 12:49:23;;;;;;;9.60;4.63;;;;;;;;;;4815514;29;20053;-83
2023/10/08 12:52:08;;;;;;;13.65;5.22;;;;;;;;;;4823660;29;20050;-82
2023/10/08 12:54:55;;;;;;;15.52;5.38;;;;;;;;;;4808246;29;20402;-81
2023/10/08 12:57:42;;;;;;;15.85;4.68;;;;;;;;;;4815172;29;20050;-82
2023/10/08 13:00:27;;;;;;;14.18;4.60;;;;;;;;;;4808508;29;20042;-84
2023/10/08 13:03:22;;;;;;;12.07;4.75;;;;;;;;;;4814862;29;20053;-83
2023/10/08 13:06:21;;;;;;;12.15;4.63;;;;;;;;;;4822678;29;20494;-84
2023/10/08 13:09:12;;;;;;;13.63;4.32;;;;;;;;;;4814334;29;20054;-82
2023/10/08 13:12:01;;;;;;;15.57;5.15;;;;;;;;;;4822950;29;20050;-83
2023/10/08 13:14:46;;;;;;;13.48;5.32;;;;;;;;;;4814186;29;20057;-83
2023/10/08 13:17:32;;;;;;;10.77;4.35;;;;;;;;;;4833494;29;20493;-84
2023/10/08 13:20:21;;;;;;;19.25;5.40;;;;;;;;;;4815851;29;20045;-83
2023/10/08 13:23:13;;;;;;;11.25;5.13;;;;;;;;;;4822283;29;20054;-87
2023/10/08 13:26:04;;;;;;;18.23;5.00;;;;;;;;;;4822493;29;20454;-81
2023/10/08 13:28:50;;;;;;;20.45;5.40;;;;;;;;;;4830331;29;20058;-82
2023/10/08 13:31:36;;;;;;;14.45;4.78;;;;;;;;;;4821302;29;20050;-82
2023/10/08 13:34:21;;;;;;;13.35;4.60;;;;;;;;;;4821419;29;20485;-83
2023/10/08 13:37:07;;;;;;;10.13;4.32;;;;;;;;;;4819843;29;20049;-82
2023/10/08 13:39:53;;;;;;;16.20;4.57;;;;;;;;;;4814048;29;20050;-86
2023/10/08 13:42:39;;;;;;;10.73;4.15;;;;;;;;;;4815167;29;20057;-81
2023/10/08 13:45:29;;;;;;;16.40;4.72;;;;;;;;;;4815595;29;20049;-82
2023/10/08 13:48:14;;;;;;;9.75;4.15;;;;;;;;;;4815176;29;20478;-86
2023/10/08 13:51:03;;;;;;;9.98;5.03;;;;;;;;;;4828729;29;20061;-84
2023/10/08 13:54:00;;;;;;;15.02;5.38;;;;;;;;;;4806172;29;20049;-85
2023/10/08 13:56:48;;;;;;;17.15;5.68;;;;;;;;;;4818394;29;20042;-82
2023/10/08 13:59:34;;;;;;;14.45;4.55;;;;;;;;;;4818959;29;20065;-83
2023/10/08 14:02:21;;;;;;;17.55;5.90;;;;;;;;;;4825085;29;20457;-83
2023/10/08 14:05:08;;;;;;;18.25;4.90;;;;;;;;;;4826671;29;20049;-84
2023/10/08 14:07:54;;;;;;;17.80;5.15;;;;;;;;;;4818625;29;20474;-82
2023/10/08 14:10:39;;;;;;;26.25;4.60;;;;;;;;;;4828601;29;20045;-84
2023/10/08 14:13:27;;;;;;;16.60;4.18;;;;;;;;;;4823365;29;20465;-85
2023/10/08 14:16:14;;;;;;;19.38;5.38;;;;;;;;;;4823869;29;20038;-81
2023/10/08 14:18:59;;;;;;;13.93;4.68;;;;;;;;;;4811965;29;20406;-84
2023/10/08 14:21:55;;;;;;;12.95;4.70;;;;;;;;;;4831405;29;20406;-81
2023/10/08 14:24:45;;;;;;;16.10;4.80;;;;;;;;;;4831400;29;20054;-82
2023/10/08 14:27:31;;;;;;;11.27;4.30;;;;;;;;;;4830002;29;20041;-83
2023/10/08 14:30:21;;;;;;;15.70;5.38;;;;;;;;;;4836513;29;20401;-80
2023/10/08 14:33:08;;;;;;;13.52;4.72;;;;;;;;;;4836030;29;20425;-82
2023/10/08 14:45:20;;;;;;;14.02;5.43;;;;;;;;;;4830176;29;20050;-80
2023/10/08 14:48:11;;;;;;;19.58;5.40;;;;;;;;;;4821834;29;20458;-80
2023/10/08 14:51:24;;;;;;;15.65;5.80;;;;;;;;;;4828798;29;20042;-84
2023/10/08 14:54:11;;;;;;;14.35;4.97;;;;;;;;;;4833285;29;20073;-81
2023/10/08 14:56:57;;;;;;;15.77;5.20;;;;;;;;;;4834538;29;20505;-82
2023/10/08 14:59:43;;;;;;;20.00;4.88;;;;;;;;;;4833893;29;20054;-84
2023/10/08 15:02:29;;;;;;;15.60;6.45;;;;;;;;;;4820505;29;20042;-86
2023/10/08 15:05:15;;;;;;;19.88;6.43;;;;;;;;;;4836314;29;21350;-86
2023/10/08 15:08:03;;;;;;;24.88;6.90;;;;;;;;;;4834980;29;20090;-83
2023/10/08 15:10:49;;;;;;;19.17;6.00;;;;;;;;;;4838010;29;20417;-83
2023/10/08 15:13:38;;;;;;;20.67;6.22;;;;;;;;;;4836172;29;20058;-85
2023/10/08 15:16:23;;;;;;;26.15;6.43;;;;;;;;;;4828782;29;20478;-81
2023/10/08 15:19:11;;;;;;;18.65;5.25;;;;;;;;;;4834039;29;20426;-84
2023/10/08 15:21:58;;;;;;;14.93;4.43;;;;;;;;;;4829408;29;20050;-81
2023/10/08 15:24:44;;;;;;;13.20;4.90;;;;;;;;;;4828638;29;20377;-83
2023/10/08 15:27:31;;;;;;;18.52;4.43;;;;;;;;;;4819366;29;20045;-81
2023/10/08 15:30:21;;;;;;;19.13;4.75;;;;;;;;;;4823150;29;20409;-82
2023/10/08 15:33:07;;;;;;;17.45;5.45;;;;;;;;;;4821918;29;20045;-82
2023/10/08 15:35:52;;;;;;;23.92;5.47;;;;;;;;;;4828207;29;20390;-81
2023/10/08 15:38:39;;;;;;;12.43;4.55;;;;;;;;;;4834805;29;20498;-79
2023/10/08 15:41:25;;;;;;;19.42;6.85;;;;;;;;;;4821512;29;20034;-81
2023/10/08 15:44:10;;;;;;;20.38;5.30;;;;;;;;;;4834538;29;20041;-82
2023/10/08 15:46:55;;;;;;;22.25;5.68;;;;;;;;;;4823651;29;20053;-81
2023/10/08 15:49:40;;;;;;;15.38;5.35;;;;;;;;;;4834322;29;20049;-79
2023/10/08 15:52:27;;;;;;;17.35;5.10;;;;;;;;;;4829242;29;20385;-81
2023/10/08 15:55:12;;;;;;;14.20;4.50;;;;;;;;;;4829325;29;20054;-81
2023/10/08 15:57:58;;;;;;;13.93;4.45;;;;;;;;;;4835164;29;20462;-82
2023/10/08 16:00:44;;;;;;;13.57;4.82;;;;;;;;;;4836730;29;20474;-81
2023/10/08 16:03:29;;;;;;;14.10;5.32;;;;;;;;;;4831823;29;20058;-81
2023/10/08 16:06:14;;;;;;;17.70;5.55;;;;;;;;;;4817413;29;20454;-82
2023/10/08 16:09:00;;;;;;;20.50;5.65;;;;;;;;;;4824338;29;20418;-82
2023/10/08 16:11:46;;;;;;;25.80;6.63;;;;;;;;;;4817118;29;20057;-81
2023/10/08 16:14:31;;;;;;;15.05;5.88;;;;;;;;;;4823199;29;20045;-81
2023/10/08 16:17:18;;;;;;;18.23;6.07;;;;;;;;;;4826937;29;20481;-81
2023/10/08 16:20:13;;;;;;;20.77;6.78;;;;;;;;;;4815245;29;20058;-81
2023/10/08 16:22:58;;;;;;;19.88;6.28;;;;;;;;;;4829762;29;20342;-82
2023/10/08 16:25:44;;;;;;;23.13;6.80;;;;;;;;;;4809380;29;20066;-82
2023/10/08 16:28:34;;;;;;;22.77;7.05;;;;;;;;;;4814819;29;20054;-80
2023/10/08 16:31:20;;;;;;;21.50;6.82;;;;;;;;;;4828202;29;20257;-82
2023/10/08 16:34:08;;;;;;;16.70;6.70;;;;;;;;;;4830015;29;20482;-79
2023/10/08 16:36:54;;;;;;;18.23;6.15;;;;;;;;;;4822020;29;20421;-82
2023/10/08 16:39:40;;;;;;;17.90;5.72;;;;;;;;;;4815473;29;20521;-80
2023/10/08 16:42:26;;;;;;;18.33;5.70;;;;;;;;;;4824516;29;20413;-81
2023/10/08 16:45:15;;;;;;;12.45;5.38;;;;;;;;;;4828882;29;20053;-84
2023/10/08 16:48:00;;;;;;;20.30;6.10;;;;;;;;;;4824224;29;20054;-80
2023/10/08 16:50:46;;;;;;;18.38;5.75;;;;;;;;;;4830221;29;20053;-83
2023/10/08 16:53:31;;;;;;;12.55;5.13;;;;;;;;;;4815857;29;20049;-79
2023/10/08 16:56:17;;;;;;;22.17;5.57;;;;;;;;;;4829096;29;20049;-80
2023/10/08 16:59:06;;;;;;;20.38;5.10;;;;;;;;;;4824337;29;20045;-80
2023/10/08 17:01:51;;;;;;;18.70;5.53;;;;;;;;;;4808701;29;20045;-82
2023/10/08 17:04:38;;;;;;;18.50;5.18;;;;;;;;;;4829398;29;20421;-80
2023/10/08 17:07:24;;;;;;;18.63;6.32;;;;;;;;;;4824261;29;20042;-80
2023/10/08 17:10:09;;;;;;;23.67;6.43;;;;;;;;;;4814776;29;20061;-81
2023/10/08 17:12:58;;;;;;;20.00;6.65;;;;;;;;;;4831903;29;20049;-79
2023/10/08 17:15:45;;;;;;;20.98;6.60;;;;;;;;;;4826687;29;20053;-79
2023/10/08 17:18:30;;;;;;;18.27;7.03;;;;;;;;;;4834700;29;20054;-81
2023/10/08 17:21:19;;;;;;;20.67;6.15;;;;;;;;;;4826837;29;20042;-81
2023/10/08 17:24:06;;;;;;;15.80;5.40;;;;;;;;;;4830524;29;20057;-80
2023/10/08 17:26:52;;;;;;;19.80;8.05;;;;;;;;;;4833182;29;20045;-83
2023/10/08 17:29:37;;;;;;;28.58;9.13;;;;;;;;;;4836655;29;20050;-78
2023/10/08 17:32:25;;;;;;;24.33;9.07;;;;;;;;;;4828922;29;20398;-79
2023/10/08 17:35:10;;;;;;;26.33;8.45;;;;;;;;;;4828563;29;20050;-79